Time;durP1;ratioP1;P1;durP2;ratioP2;P2;SDS_P1;SDS_P2;PMS_P1;PMS_P2;Temp;Humidity;BMP_temperature;BMP_pressure;BME280_temperature;BME280_humidity;BME280_pressure;Samples;Min_cycle;Max_cycle;Signal;HPM_P1;HPM_P2
2023/12/22 00:02:19;;;;;;;;;;;5.60;99.90;;;;;;5012154;28;19928;-72
2023/12/22 00:04:47;;;;;;;;;;;5.60;99.90;;;;;;5011803;28;20411;-72
2023/12/22 00:07:17;;;;;;;;;;;5.50;99.90;;;;;;5011537;28;19968;-70
2023/12/22 00:09:44;;;;;;;;;;;5.50;99.90;;;;;;5011705;28;19921;-71
2023/12/22 00:12:12;;;;;;;;;;;5.60;99.90;;;;;;4993950;28;20663;-73
2023/12/22 00:14:40;;;;;;;;;;;5.70;99.90;;;;;;5011256;28;19921;-71
2023/12/22 00:17:08;;;;;;;;;;;5.70;99.90;;;;;;5011870;28;19921;-73
2023/12/22 00:19:36;;;;;;;;;;;5.70;99.90;;;;;;5011479;28;20396;-74
2023/12/22 00:22:04;;;;;;;;;;;5.70;99.90;;;;;;5012252;28;19927;-73
2023/12/22 00:24:33;;;;;;;;;;;5.70;99.90;;;;;;5010912;28;19933;-71
2023/12/22 00:27:01;;;;;;;;;;;5.70;99.90;;;;;;5011410;28;19925;-71
2023/12/22 00:29:29;;;;;;;;;;;5.80;99.90;;;;;;5010980;28;20012;-71
2023/12/22 00:31:56;;;;;;;;;;;6.00;99.90;;;;;;4993850;28;20427;-71
2023/12/22 00:34:24;;;;;;;;;;;6.20;99.90;;;;;;5011395;28;20468;-71
2023/12/22 00:36:52;;;;;;;;;;;6.30;99.90;;;;;;4993603;28;19926;-71
2023/12/22 00:39:20;;;;;;;;;;;6.40;99.90;;;;;;5010993;28;19929;-72
2023/12/22 00:41:49;;;;;;;;;;;6.20;99.90;;;;;;5011488;28;20012;-70
2023/12/22 00:44:17;;;;;;;;;;;6.20;99.90;;;;;;5011319;28;19936;-73
2023/12/22 00:46:44;;;;;;;;;;;6.20;99.90;;;;;;5019391;28;20392;-71
2023/12/22 00:49:12;;;;;;;;;;;6.40;99.90;;;;;;5010921;28;20460;-71
2023/12/22 00:51:40;;;;;;;;;;;6.40;99.90;;;;;;5011200;28;19921;-71
2023/12/22 00:54:08;;;;;;;;;;;6.30;99.90;;;;;;5011186;28;19984;-72
2023/12/22 00:56:35;;;;;;;;;;;6.20;99.90;;;;;;5011011;28;20430;-73
2023/12/22 00:59:05;;;;;;;;;;;6.30;99.90;;;;;;5010504;28;19925;-71
2023/12/22 01:01:38;;;;;;;;;;;6.30;99.90;;;;;;5011451;28;19921;-69
2023/12/22 01:04:07;;;;;;;;;;;6.40;99.90;;;;;;5011077;28;19921;-71
2023/12/22 01:06:37;;;;;;;;;;;6.30;99.90;;;;;;5011021;28;19925;-71
2023/12/22 01:09:05;;;;;;;;;;;6.20;99.90;;;;;;5010615;28;20289;-71
2023/12/22 01:11:33;;;;;;;;;;;6.20;99.90;;;;;;5011452;28;19925;-71
2023/12/22 01:14:01;;;;;;;;;;;6.10;99.90;;;;;;5010969;28;20447;-71
2023/12/22 01:16:30;;;;;;;;;;;6.10;99.90;;;;;;5018522;28;19929;-72
2023/12/22 01:18:58;;;;;;;;;;;6.10;99.90;;;;;;5010373;28;20381;-73
2023/12/22 01:21:26;;;;;;;;;;;6.20;99.90;;;;;;5013036;28;19925;-74
2023/12/22 01:23:54;;;;;;;;;;;6.20;99.90;;;;;;5016908;28;19925;-70
2023/12/22 01:26:21;;;;;;;;;;;6.30;99.90;;;;;;5020202;28;19929;-71
2023/12/22 01:28:49;;;;;;;;;;;6.30;99.90;;;;;;5019992;28;19921;-74
2023/12/22 01:31:17;;;;;;;;;;;6.30;99.90;;;;;;5016836;28;20380;-73
2023/12/22 01:33:46;;;;;;;;;;;6.40;99.90;;;;;;5004681;28;19921;-72
2023/12/22 01:36:14;;;;;;;;;;;6.40;99.90;;;;;;5014044;28;19921;-72
2023/12/22 01:38:43;;;;;;;;;;;6.40;99.90;;;;;;5019771;28;19926;-74
2023/12/22 01:41:11;;;;;;;;;;;6.30;99.90;;;;;;5022825;28;19925;-72
2023/12/22 01:43:39;;;;;;;;;;;6.30;99.90;;;;;;5022290;28;19937;-71
2023/12/22 01:46:07;;;;;;;;;;;6.20;99.90;;;;;;5027319;28;20016;-71
2023/12/22 01:48:35;;;;;;;;;;;6.00;99.90;;;;;;5018342;28;19925;-70
2023/12/22 01:51:05;;;;;;;;;;;5.90;99.90;;;;;;5016129;28;19922;-71
2023/12/22 01:53:33;;;;;;;;;;;5.80;99.90;;;;;;5016327;28;19932;-72
2023/12/22 01:56:05;;;;;;;;;;;5.80;99.90;;;;;;5025572;28;19921;-73
2023/12/22 01:58:35;;;;;;;;;;;5.60;99.90;;;;;;5021654;28;19925;-73
2023/12/22 02:01:03;;;;;;;;;;;5.60;99.90;;;;;;5021310;28;19929;-73
2023/12/22 02:03:31;;;;;;;;;;;5.40;99.90;;;;;;5018571;28;20332;-73
2023/12/22 02:05:59;;;;;;;;;;;5.30;99.90;;;;;;5022008;28;19971;-73
2023/12/22 02:08:28;;;;;;;;;;;5.20;99.90;;;;;;5022594;28;19921;-73
2023/12/22 02:10:56;;;;;;;;;;;5.30;99.90;;;;;;5021711;28;20453;-72
2023/12/22 02:13:24;;;;;;;;;;;5.30;99.90;;;;;;5022229;28;19921;-72
2023/12/22 02:15:55;;;;;;;;;;;5.50;99.90;;;;;;5024373;28;20336;-73
2023/12/22 02:18:27;;;;;;;;;;;5.40;99.90;;;;;;5007586;28;19921;-73
2023/12/22 02:20:55;;;;;;;;;;;5.50;99.90;;;;;;5022691;28;19921;-75
2023/12/22 02:23:24;;;;;;;;;;;5.60;99.90;;;;;;5017045;28;20307;-73
2023/12/22 02:25:56;;;;;;;;;;;5.50;99.90;;;;;;5018032;28;19921;-72
2023/12/22 02:28:24;;;;;;;;;;;5.70;99.90;;;;;;5022997;28;20381;-73
2023/12/22 02:30:55;;;;;;;;;;;5.70;99.90;;;;;;5018554;28;19928;-75
2023/12/22 02:33:24;;;;;;;;;;;5.60;99.90;;;;;;5019709;28;19937;-73
2023/12/22 02:35:52;;;;;;;;;;;5.80;99.90;;;;;;5020922;28;19925;-73
2023/12/22 02:38:21;;;;;;;;;;;6.00;99.90;;;;;;5022387;28;19921;-74
2023/12/22 02:40:50;;;;;;;;;;;6.10;99.90;;;;;;5020050;28;19929;-76
2023/12/22 02:43:18;;;;;;;;;;;6.20;99.90;;;;;;5022067;28;20444;-73
2023/12/22 02:45:45;;;;;;;;;;;6.00;99.90;;;;;;5021739;28;20299;-74
2023/12/22 02:48:13;;;;;;;;;;;5.90;99.90;;;;;;5020248;28;19925;-73
2023/12/22 02:50:41;;;;;;;;;;;5.80;99.90;;;;;;5020327;28;19921;-73
2023/12/22 02:53:09;;;;;;;;;;;5.90;99.90;;;;;;5017753;28;19928;-74
2023/12/22 02:55:36;;;;;;;;;;;5.90;99.90;;;;;;5020810;28;19922;-72
2023/12/22 02:58:06;;;;;;;;;;;5.80;99.90;;;;;;5016686;28;19921;-73
2023/12/22 03:00:33;;;;;;;;;;;5.80;99.90;;;;;;5016526;28;19949;-73
2023/12/22 03:03:01;;;;;;;;;;;5.80;99.90;;;;;;5018201;28;20400;-73
2023/12/22 03:05:29;;;;;;;;;;;5.90;99.90;;;;;;5015220;28;20420;-71
2023/12/22 03:07:57;;;;;;;;;;;5.90;99.90;;;;;;5013093;28;21270;-71
2023/12/22 03:10:25;;;;;;;;;;;5.90;99.90;;;;;;5010946;28;19975;-71
2023/12/22 03:12:53;;;;;;;;;;;6.00;99.90;;;;;;5014647;28;19931;-71
2023/12/22 03:15:22;;;;;;;;;;;6.10;99.90;;;;;;5020027;28;20343;-71
2023/12/22 03:17:50;;;;;;;;;;;6.10;99.90;;;;;;5020371;28;19983;-72
2023/12/22 03:20:18;;;;;;;;;;;6.20;99.90;;;;;;5001734;28;19971;-72
2023/12/22 03:22:45;;;;;;;;;;;6.20;99.90;;;;;;5015101;28;19928;-72
2023/12/22 03:25:13;;;;;;;;;;;6.20;99.90;;;;;;5019184;28;20412;-72
2023/12/22 03:27:40;;;;;;;;;;;6.10;99.90;;;;;;5017086;28;19928;-74
2023/12/22 03:30:09;;;;;;;;;;;6.10;99.90;;;;;;5024944;28;19925;-73
2023/12/22 03:32:38;;;;;;;;;;;6.20;99.90;;;;;;5017185;28;20556;-73
2023/12/22 03:35:06;;;;;;;;;;;6.30;99.90;;;;;;5013668;28;20056;-72
2023/12/22 03:37:34;;;;;;;;;;;6.30;99.90;;;;;;5013717;28;19925;-71
2023/12/22 03:40:02;;;;;;;;;;;6.20;99.90;;;;;;5014702;28;19921;-72
2023/12/22 03:42:29;;;;;;;;;;;6.30;99.90;;;;;;5018633;28;19967;-73
2023/12/22 03:44:57;;;;;;;;;;;6.20;99.90;;;;;;5018379;28;20416;-70
2023/12/22 03:47:25;;;;;;;;;;;6.20;99.90;;;;;;5013908;28;19975;-72
2023/12/22 03:49:54;;;;;;;;;;;6.10;99.90;;;;;;5019747;28;19929;-72
2023/12/22 03:52:22;;;;;;;;;;;6.10;99.90;;;;;;5014080;28;19971;-72
2023/12/22 03:54:50;;;;;;;;;;;6.20;99.90;;;;;;5019589;28;20166;-72
2023/12/22 03:57:17;;;;;;;;;;;6.20;99.90;;;;;;5014801;28;19921;-71
2023/12/22 03:59:45;;;;;;;;;;;6.10;99.90;;;;;;5018016;28;20407;-73
2023/12/22 04:02:13;;;;;;;;;;;6.10;99.90;;;;;;5023198;28;19921;-73
2023/12/22 04:04:41;;;;;;;;;;;6.20;99.90;;;;;;5011966;28;19922;-72
2023/12/22 04:07:10;;;;;;;;;;;6.20;99.90;;;;;;5016024;28;19971;-72
2023/12/22 04:09:38;;;;;;;;;;;6.20;99.90;;;;;;5011423;28;19925;-73
2023/12/22 04:12:06;;;;;;;;;;;6.20;99.90;;;;;;5020484;28;19921;-72
2023/12/22 04:14:34;;;;;;;;;;;6.10;99.90;;;;;;5009257;28;20311;-72
2023/12/22 04:17:02;;;;;;;;;;;6.10;99.90;;;;;;5013091;28;19936;-73
2023/12/22 04:19:30;;;;;;;;;;;6.20;99.90;;;;;;5023179;28;19929;-73
2023/12/22 04:21:58;;;;;;;;;;;6.20;99.90;;;;;;5012518;28;19936;-73
2023/12/22 04:24:27;;;;;;;;;;;6.30;99.90;;;;;;5014282;28;19935;-71
2023/12/22 04:26:55;;;;;;;;;;;6.40;99.90;;;;;;5019253;28;19921;-72
2023/12/22 04:29:23;;;;;;;;;;;6.40;99.90;;;;;;5021209;28;19924;-72
2023/12/22 04:31:50;;;;;;;;;;;6.40;99.90;;;;;;5018493;28;19921;-73
2023/12/22 04:34:18;;;;;;;;;;;6.40;99.90;;;;;;5015157;28;19925;-72
2023/12/22 04:36:46;;;;;;;;;;;6.50;99.90;;;;;;5020973;28;19922;-72
2023/12/22 04:39:14;;;;;;;;;;;6.40;99.90;;;;;;5014109;28;20343;-74
2023/12/22 04:41:43;;;;;;;;;;;6.50;99.90;;;;;;5023005;28;19929;-74
2023/12/22 04:44:11;;;;;;;;;;;6.60;99.90;;;;;;5021957;28;19929;-73
2023/12/22 04:46:39;;;;;;;;;;;6.60;99.90;;;;;;5019192;28;20348;-72
2023/12/22 04:49:07;;;;;;;;;;;6.60;99.90;;;;;;5021085;28;19925;-72
2023/12/22 04:51:34;;;;;;;;;;;6.60;99.90;;;;;;5015602;28;19921;-72
2023/12/22 04:54:02;;;;;;;;;;;6.50;99.90;;;;;;5024338;28;19925;-73
2023/12/22 04:56:30;;;;;;;;;;;6.60;99.90;;;;;;5014678;28;19929;-72
2023/12/22 04:59:00;;;;;;;;;;;6.70;99.90;;;;;;5016572;28;19975;-73
2023/12/22 05:01:27;;;;;;;;;;;6.70;99.90;;;;;;5022659;28;20368;-72
2023/12/22 05:03:55;;;;;;;;;;;6.80;99.90;;;;;;5023035;28;20422;-72
2023/12/22 05:06:23;;;;;;;;;;;6.70;99.90;;;;;;5017924;28;20395;-72
2023/12/22 05:08:51;;;;;;;;;;;6.80;99.90;;;;;;5018006;28;19921;-72
2023/12/22 05:11:19;;;;;;;;;;;6.70;99.90;;;;;;5018339;28;20051;-71
2023/12/22 05:13:46;;;;;;;;;;;6.80;99.90;;;;;;5023718;28;19921;-72
2023/12/22 05:16:15;;;;;;;;;;;6.60;99.90;;;;;;5025532;28;20031;-73
2023/12/22 05:18:43;;;;;;;;;;;6.60;99.90;;;;;;5021897;28;19927;-72
2023/12/22 05:21:12;;;;;;;;;;;6.50;99.90;;;;;;5026126;28;19921;-73
2023/12/22 05:23:40;;;;;;;;;;;6.50;99.90;;;;;;5023299;28;20403;-72
2023/12/22 05:26:08;;;;;;;;;;;6.40;99.90;;;;;;5021188;28;19928;-73
2023/12/22 05:28:36;;;;;;;;;;;6.50;99.90;;;;;;5019482;28;19922;-73
2023/12/22 05:31:04;;;;;;;;;;;6.50;99.90;;;;;;5021289;28;19969;-73
2023/12/22 05:33:33;;;;;;;;;;;6.50;99.90;;;;;;5020962;28;19921;-73
2023/12/22 05:36:00;;;;;;;;;;;6.60;99.90;;;;;;5024291;28;20296;-73
2023/12/22 05:38:28;;;;;;;;;;;6.50;99.90;;;;;;5023784;28;19925;-73
2023/12/22 05:40:56;;;;;;;;;;;6.50;99.90;;;;;;5022342;28;19921;-73
2023/12/22 05:43:24;;;;;;;;;;;6.40;99.90;;;;;;5018652;28;19961;-72
2023/12/22 05:45:52;;;;;;;;;;;6.40;99.90;;;;;;5021384;28;19947;-73
2023/12/22 05:48:21;;;;;;;;;;;6.40;99.90;;;;;;5016221;28;20439;-73
2023/12/22 05:50:51;;;;;;;;;;;6.40;99.90;;;;;;5026330;28;19928;-73
2023/12/22 05:53:18;;;;;;;;;;;6.50;99.90;;;;;;5019777;28;19967;-73
2023/12/22 05:55:46;;;;;;;;;;;6.50;99.90;;;;;;5014639;28;19975;-73
2023/12/22 05:58:14;;;;;;;;;;;6.60;99.90;;;;;;5022023;28;19920;-73
2023/12/22 06:00:42;;;;;;;;;;;6.50;99.90;;;;;;5025375;28;19947;-72
2023/12/22 06:03:10;;;;;;;;;;;6.60;99.90;;;;;;5020344;28;19964;-72
2023/12/22 06:05:38;;;;;;;;;;;6.50;99.90;;;;;;5014547;28;20439;-72
2023/12/22 06:08:08;;;;;;;;;;;6.50;99.90;;;;;;5014768;28;19971;-72
2023/12/22 06:10:36;;;;;;;;;;;6.50;99.90;;;;;;5014016;28;19925;-73
2023/12/22 06:13:04;;;;;;;;;;;6.50;99.90;;;;;;5013944;28;19949;-74
2023/12/22 06:15:32;;;;;;;;;;;6.50;99.90;;;;;;5013792;28;19987;-73
2023/12/22 06:18:00;;;;;;;;;;;6.50;99.90;;;;;;5013704;28;19921;-72
2023/12/22 06:20:28;;;;;;;;;;;6.50;99.90;;;;;;5021737;28;19927;-71
2023/12/22 06:22:55;;;;;;;;;;;6.50;99.90;;;;;;5013051;28;19972;-72
2023/12/22 06:25:25;;;;;;;;;;;6.50;99.90;;;;;;5008886;28;19925;-69
2023/12/22 06:27:52;;;;;;;;;;;6.50;99.90;;;;;;5003804;28;19936;-69
2023/12/22 06:30:20;;;;;;;;;;;6.50;99.90;;;;;;5002223;28;19929;-69
2023/12/22 06:32:48;;;;;;;;;;;6.50;99.90;;;;;;5001698;28;19927;-70
2023/12/22 06:35:16;;;;;;;;;;;6.50;99.90;;;;;;5002130;28;19957;-69
2023/12/22 06:37:45;;;;;;;;;;;6.60;99.90;;;;;;5002052;28;19925;-68
2023/12/22 06:40:13;;;;;;;;;;;6.50;99.90;;;;;;5003621;28;20406;-71
2023/12/22 06:42:42;;;;;;;;;;;6.60;99.90;;;;;;5002492;28;19929;-68
2023/12/22 06:45:11;;;;;;;;;;;6.60;99.90;;;;;;5002848;28;19930;-70
2023/12/22 06:47:38;;;;;;;;;;;6.60;99.90;;;;;;5001908;28;20100;-69
2023/12/22 06:50:07;;;;;;;;;;;6.60;99.90;;;;;;5017434;28;20399;-69
2023/12/22 06:52:35;;;;;;;;;;;6.60;99.90;;;;;;5011699;28;20381;-68
2023/12/22 06:55:03;;;;;;;;;;;6.60;99.90;;;;;;5011927;28;20008;-70
2023/12/22 06:57:31;;;;;;;;;;;6.60;99.90;;;;;;5011523;28;19922;-70
2023/12/22 07:00:02;;;;;;;;;;;6.60;99.90;;;;;;5011836;28;19921;-68
2023/12/22 07:02:30;;;;;;;;;;;6.60;99.90;;;;;;5011925;28;20340;-69
2023/12/22 07:05:18;;;;;;;;;;;6.60;99.90;;;;;;5012704;28;19921;-70
2023/12/22 07:07:46;;;;;;;;;;;6.70;99.90;;;;;;5019123;28;19925;-71
2023/12/22 07:10:14;;;;;;;;;;;7.10;99.90;;;;;;5027629;28;20333;-71
2023/12/22 07:12:41;;;;;;;;;;;7.30;99.90;;;;;;5017706;28;19928;-69
2023/12/22 07:15:11;;;;;;;;;;;7.80;99.90;;;;;;5016173;28;19932;-69
2023/12/22 07:17:39;;;;;;;;;;;7.50;99.90;;;;;;5023065;28;20453;-69
2023/12/22 07:20:09;;;;;;;;;;;7.30;99.90;;;;;;5011933;28;19925;-70
2023/12/22 07:22:36;;;;;;;;;;;7.10;99.90;;;;;;5012868;28;19964;-67
2023/12/22 07:25:08;;;;;;;;;;;7.00;99.90;;;;;;5012750;28;19929;-69
2023/12/22 07:27:36;;;;;;;;;;;6.90;99.90;;;;;;5011634;28;19925;-70
2023/12/22 07:30:04;;;;;;;;;;;6.80;99.90;;;;;;5012641;28;19968;-69
2023/12/22 07:32:35;;;;;;;;;;;6.80;99.90;;;;;;5012885;28;19956;-69
2023/12/22 07:35:03;;;;;;;;;;;6.80;99.90;;;;;;5011591;28;20289;-70
2023/12/22 07:37:31;;;;;;;;;;;6.80;99.90;;;;;;5011746;28;19921;-69
2023/12/22 07:39:59;;;;;;;;;;;6.80;99.90;;;;;;5012451;28;19929;-69
2023/12/22 07:42:26;;;;;;;;;;;6.80;99.90;;;;;;5012343;28;19925;-69
2023/12/22 07:44:55;;;;;;;;;;;6.80;99.90;;;;;;5012360;28;20012;-69
2023/12/22 07:47:23;;;;;;;;;;;6.80;99.90;;;;;;5011832;28;20300;-69
2023/12/22 07:49:52;;;;;;;;;;;6.80;99.90;;;;;;5004523;28;19921;-70
2023/12/22 07:52:20;;;;;;;;;;;6.80;99.90;;;;;;5012337;28;19921;-69
2023/12/22 07:54:48;;;;;;;;;;;6.90;99.90;;;;;;5011880;28;19921;-70
2023/12/22 07:57:16;;;;;;;;;;;6.90;99.90;;;;;;5011865;28;19987;-70
2023/12/22 07:59:44;;;;;;;;;;;7.10;99.90;;;;;;5012173;28;20320;-70
2023/12/22 08:02:11;;;;;;;;;;;6.90;99.90;;;;;;5012090;28;20013;-69
2023/12/22 08:04:39;;;;;;;;;;;6.90;99.90;;;;;;5011968;28;19936;-69
2023/12/22 08:07:09;;;;;;;;;;;6.90;99.90;;;;;;5011723;28;19980;-68
2023/12/22 08:09:36;;;;;;;;;;;6.90;99.90;;;;;;5011550;28;19999;-70
2023/12/22 08:12:04;;;;;;;;;;;6.90;99.90;;;;;;5011926;28;20304;-69
2023/12/22 08:14:32;;;;;;;;;;;7.00;99.90;;;;;;5011835;28;19922;-70
2023/12/22 08:17:00;;;;;;;;;;;7.20;99.90;;;;;;5012004;28;19922;-70
2023/12/22 08:19:28;;;;;;;;;;;7.10;99.90;;;;;;5011199;28;19928;-73
2023/12/22 08:21:59;;;;;;;;;;;7.10;99.90;;;;;;5012201;28;19929;-69
2023/12/22 08:24:33;;;;;;;;;;;7.20;99.90;;;;;;5011651;28;19929;-69
2023/12/22 08:27:00;;;;;;;;;;;7.20;99.90;;;;;;5011452;28;20290;-70
2023/12/22 08:29:28;;;;;;;;;;;7.20;99.90;;;;;;5011260;28;19983;-70
2023/12/22 08:31:56;;;;;;;;;;;7.20;99.90;;;;;;5004244;28;19921;-69
2023/12/22 08:34:24;;;;;;;;;;;7.10;99.90;;;;;;5011605;28;19936;-69
2023/12/22 08:36:52;;;;;;;;;;;7.00;99.90;;;;;;5011166;28;19975;-66
2023/12/22 08:39:19;;;;;;;;;;;6.90;99.90;;;;;;5011423;28;20301;-69
2023/12/22 08:41:49;;;;;;;;;;;6.90;99.90;;;;;;5011428;28;19925;-69
2023/12/22 08:44:17;;;;;;;;;;;6.80;99.90;;;;;;5011470;28;19930;-70
2023/12/22 08:46:44;;;;;;;;;;;6.80;99.90;;;;;;5010814;28;19988;-69
2023/12/22 08:49:12;;;;;;;;;;;6.80;99.90;;;;;;5011533;28;20278;-69
2023/12/22 08:51:41;;;;;;;;;;;6.70;99.90;;;;;;5011522;28;19975;-69
2023/12/22 08:54:08;;;;;;;;;;;6.70;99.90;;;;;;5011277;28;19922;-68
2023/12/22 08:56:36;;;;;;;;;;;6.60;99.90;;;;;;5010998;28;19925;-69
2023/12/22 08:59:05;;;;;;;;;;;6.60;99.90;;;;;;5010681;28;19922;-69
2023/12/22 09:01:33;;;;;;;;;;;6.50;99.90;;;;;;5011132;28;19925;-69
2023/12/22 09:04:01;;;;;;;;;;;6.50;99.90;;;;;;5011346;28;19976;-70
2023/12/22 09:06:29;;;;;;;;;;;6.50;99.90;;;;;;5011113;28;20441;-69
2023/12/22 09:08:57;;;;;;;;;;;6.50;99.90;;;;;;5010808;28;19936;-69
2023/12/22 09:11:25;;;;;;;;;;;6.40;99.90;;;;;;5011612;28;20308;-70
2023/12/22 09:13:53;;;;;;;;;;;6.40;99.90;;;;;;5011087;28;20403;-70
2023/12/22 09:16:25;;;;;;;;;;;6.40;99.90;;;;;;5010724;28;19925;-68
2023/12/22 09:18:53;;;;;;;;;;;6.40;99.90;;;;;;5010538;28;20360;-68
2023/12/22 09:21:21;;;;;;;;;;;6.40;99.90;;;;;;5011215;28;19930;-70
2023/12/22 09:23:49;;;;;;;;;;;6.40;99.90;;;;;;5011042;28;20000;-69
2023/12/22 09:26:17;;;;;;;;;;;6.40;99.90;;;;;;5010658;28;19929;-69
2023/12/22 09:28:45;;;;;;;;;;;6.40;99.90;;;;;;5010412;28;20364;-71
2023/12/22 09:31:13;;;;;;;;;;;6.50;99.90;;;;;;5011324;28;20377;-69
2023/12/22 09:33:44;;;;;;;;;;;6.60;99.90;;;;;;5011026;28;19921;-69
2023/12/22 09:36:11;;;;;;;;;;;6.60;99.90;;;;;;5010987;28;19927;-67
2023/12/22 09:38:39;;;;;;;;;;;6.70;99.90;;;;;;5018881;28;19928;-69
2023/12/22 09:41:07;;;;;;;;;;;6.70;99.90;;;;;;5010993;28;19925;-70
2023/12/22 09:43:36;;;;;;;;;;;6.70;99.90;;;;;;5011031;28;19927;-69
2023/12/22 09:46:05;;;;;;;;;;;6.80;99.90;;;;;;5002974;28;19928;-68
2023/12/22 09:48:35;;;;;;;;;;;6.80;99.90;;;;;;5009872;28;20369;-70
2023/12/22 09:51:05;;;;;;;;;;;6.80;99.90;;;;;;5010851;28;19925;-70
2023/12/22 09:53:34;;;;;;;;;;;6.80;99.90;;;;;;5010875;28;19937;-70
2023/12/22 09:56:03;;;;;;;;;;;6.80;99.90;;;;;;5010427;28;20369;-70
2023/12/22 09:58:31;;;;;;;;;;;6.80;99.90;;;;;;5012407;28;20335;-71
2023/12/22 10:01:02;;;;;;;;;;;6.90;99.90;;;;;;5014243;28;19961;-70
2023/12/22 10:03:30;;;;;;;;;;;6.90;99.90;;;;;;5014639;28;19922;-71
2023/12/22 10:05:58;;;;;;;;;;;7.00;99.90;;;;;;5014159;28;19929;-69
2023/12/22 10:08:27;;;;;;;;;;;7.10;99.90;;;;;;5013486;28;19928;-69
2023/12/22 10:10:56;;;;;;;;;;;7.10;99.90;;;;;;5014421;28;19952;-70
2023/12/22 10:13:23;;;;;;;;;;;7.10;99.90;;;;;;5014361;28;20308;-68
2023/12/22 10:15:51;;;;;;;;;;;7.20;99.90;;;;;;5013716;28;19928;-70
2023/12/22 10:18:19;;;;;;;;;;;7.30;99.90;;;;;;5013203;28;19922;-69
2023/12/22 10:20:47;;;;;;;;;;;7.30;99.90;;;;;;5014045;28;20111;-70
2023/12/22 10:23:15;;;;;;;;;;;7.30;99.90;;;;;;5014052;28;20012;-69
2023/12/22 10:25:46;;;;;;;;;;;7.40;99.90;;;;;;5013638;28;19922;-70
2023/12/22 10:28:15;;;;;;;;;;;7.40;99.90;;;;;;5013235;28;19925;-70
2023/12/22 10:30:45;;;;;;;;;;;7.40;99.90;;;;;;5013757;28;20015;-70
2023/12/22 10:33:13;;;;;;;;;;;7.50;99.90;;;;;;5013816;28;19921;-70
2023/12/22 10:35:42;;;;;;;;;;;7.60;99.90;;;;;;5013381;28;20411;-71
2023/12/22 10:38:10;;;;;;;;;;;7.70;99.90;;;;;;5013008;28;20015;-70
2023/12/22 10:40:38;;;;;;;;;;;7.70;99.90;;;;;;5013724;28;19957;-70
2023/12/22 10:43:07;;;;;;;;;;;7.80;99.90;;;;;;5013427;28;20020;-70
2023/12/22 10:45:35;;;;;;;;;;;7.80;99.90;;;;;;5013377;28;20009;-70
2023/12/22 10:48:03;;;;;;;;;;;8.00;99.90;;;;;;5013182;28;19928;-69
2023/12/22 10:50:31;;;;;;;;;;;8.00;99.90;;;;;;5013539;28;19944;-70
2023/12/22 10:53:01;;;;;;;;;;;8.00;99.90;;;;;;5013302;28;19929;-70
2023/12/22 10:55:29;;;;;;;;;;;8.10;99.90;;;;;;5013274;28;20157;-69
2023/12/22 10:57:57;;;;;;;;;;;8.10;99.90;;;;;;5012587;28;19932;-69
2023/12/22 11:00:26;;;;;;;;;;;8.20;99.90;;;;;;5013420;28;19932;-73
2023/12/22 11:03:00;;;;;;;;;;;8.20;99.90;;;;;;5013053;28;20281;-70
2023/12/22 11:05:28;;;;;;;;;;;8.20;99.90;;;;;;5013211;28;20016;-70
2023/12/22 11:08:01;;;;;;;;;;;8.20;99.90;;;;;;5012569;28;19976;-70
2023/12/22 11:10:31;;;;;;;;;;;8.30;99.90;;;;;;5013224;28;19933;-70
2023/12/22 11:13:00;;;;;;;;;;;8.30;99.90;;;;;;5012793;28;19921;-71
2023/12/22 11:15:29;;;;;;;;;;;8.30;99.90;;;;;;5012998;28;20376;-70
2023/12/22 11:17:58;;;;;;;;;;;8.30;99.90;;;;;;5012495;28;20048;-72
2023/12/22 11:20:27;;;;;;;;;;;8.40;99.90;;;;;;5013002;28;19967;-70
2023/12/22 11:22:55;;;;;;;;;;;8.40;99.90;;;;;;5012387;28;19928;-72
2023/12/22 11:25:24;;;;;;;;;;;8.40;99.90;;;;;;5012681;28;19972;-72
2023/12/22 11:27:52;;;;;;;;;;;8.40;99.90;;;;;;4994583;28;19921;-70
2023/12/22 11:30:21;;;;;;;;;;;8.40;99.90;;;;;;4995261;28;19933;-70
2023/12/22 11:32:51;;;;;;;;;;;8.40;99.90;;;;;;5012194;28;19926;-70
2023/12/22 11:35:19;;;;;;;;;;;8.50;99.90;;;;;;5012707;28;19925;-71
2023/12/22 11:37:47;;;;;;;;;;;8.40;99.90;;;;;;5012130;28;19928;-70
2023/12/22 11:40:16;;;;;;;;;;;8.40;99.90;;;;;;5012643;28;19984;-69
2023/12/22 11:42:46;;;;;;;;;;;8.40;99.90;;;;;;5012302;28;20301;-70
2023/12/22 11:45:18;;;;;;;;;;;8.40;99.90;;;;;;5012611;28;20397;-70
2023/12/22 11:47:46;;;;;;;;;;;8.30;99.90;;;;;;5011689;28;19921;-70
2023/12/22 11:50:28;;;;;;;;;;;8.30;99.90;;;;;;5012554;28;19925;-71
2023/12/22 11:52:56;;;;;;;;;;;8.30;99.90;;;;;;5013226;28;19928;-69
2023/12/22 11:55:40;;;;;;;;;;;8.30;99.90;;;;;;5016407;28;19922;-70
2023/12/22 11:58:27;;;;;;;;;;;8.30;99.90;;;;;;5011417;28;20293;-70
2023/12/22 12:00:54;;;;;;;;;;;8.20;99.90;;;;;;5012522;28;20031;-68
2023/12/22 12:03:23;;;;;;;;;;;8.20;99.90;;;;;;5011985;28;19932;-70
2023/12/22 12:06:10;;;;;;;;;;;8.20;99.90;;;;;;5012151;28;20307;-69
2023/12/22 12:08:38;;;;;;;;;;;8.20;99.90;;;;;;5011502;28;20474;-70
2023/12/22 12:11:06;;;;;;;;;;;8.20;99.90;;;;;;5011875;28;20288;-69
2023/12/22 12:13:34;;;;;;;;;;;8.20;99.90;;;;;;5017693;28;19967;-71
2023/12/22 12:16:04;;;;;;;;;;;8.20;99.90;;;;;;5013368;28;19921;-70
2023/12/22 12:18:33;;;;;;;;;;;8.30;99.90;;;;;;5011395;28;19928;-69
2023/12/22 12:21:02;;;;;;;;;;;8.30;99.90;;;;;;5011257;28;20401;-70
2023/12/22 12:23:30;;;;;;;;;;;8.30;99.90;;;;;;5011564;28;20003;-69
2023/12/22 12:25:58;;;;;;;;;;;8.30;99.90;;;;;;5009241;28;20205;-70
2023/12/22 12:28:27;;;;;;;;;;;8.30;99.90;;;;;;5010910;28;20345;-72
2023/12/22 12:30:59;;;;;;;;;;;8.30;99.90;;;;;;5011535;28;19921;-73
2023/12/22 12:33:27;;;;;;;;;;;8.30;99.90;;;;;;5011757;28;19921;-70
2023/12/22 12:35:56;;;;;;;;;;;8.40;99.90;;;;;;5011100;28;19925;-70
2023/12/22 12:38:36;;;;;;;;;;;8.40;99.90;;;;;;5011038;28;20296;-68
2023/12/22 12:41:04;;;;;;;;;;;8.40;99.90;;;;;;5011608;28;19921;-70
2023/12/22 12:43:32;;;;;;;;;;;8.40;99.90;;;;;;5012715;28;20334;-71
2023/12/22 12:46:06;;;;;;;;;;;8.50;99.90;;;;;;5011244;28;19921;-71
2023/12/22 12:48:34;;;;;;;;;;;8.50;99.90;;;;;;5010775;28;19925;-71
2023/12/22 12:51:03;;;;;;;;;;;8.40;99.90;;;;;;5011439;28;19925;-73
2023/12/22 12:53:33;;;;;;;;;;;8.50;99.90;;;;;;5012260;28;19921;-72
2023/12/22 12:56:01;;;;;;;;;;;8.40;99.90;;;;;;5011407;28;20004;-71
2023/12/22 12:58:30;;;;;;;;;;;8.40;99.90;;;;;;5010874;28;19925;-74
2023/12/22 13:01:08;;;;;;;;;;;8.30;99.90;;;;;;5011145;28;19973;-71
2023/12/22 13:03:51;;;;;;;;;;;8.30;99.90;;;;;;5011523;28;20308;-70
2023/12/22 13:06:19;;;;;;;;;;;8.30;99.90;;;;;;5011326;28;19921;-71
2023/12/22 13:08:50;;;;;;;;;;;8.30;99.90;;;;;;5011188;28;19921;-73
2023/12/22 13:11:21;;;;;;;;;;;8.30;99.90;;;;;;5011084;28;19925;-68
2023/12/22 13:13:49;;;;;;;;;;;8.30;99.90;;;;;;5011477;28;19925;-70
2023/12/22 13:16:19;;;;;;;;;;;8.30;99.90;;;;;;5010958;28;20392;-70
2023/12/22 13:18:47;;;;;;;;;;;8.30;99.90;;;;;;5010421;28;20431;-71
2023/12/22 13:21:15;;;;;;;;;;;8.30;99.90;;;;;;5011124;28;20331;-71
2023/12/22 13:23:42;;;;;;;;;;;8.40;99.90;;;;;;5011088;28;19931;-70
2023/12/22 13:26:19;;;;;;;;;;;8.40;99.90;;;;;;5010998;28;20369;-70
2023/12/22 13:28:47;;;;;;;;;;;8.40;99.90;;;;;;5010651;28;19932;-71
2023/12/22 13:31:18;;;;;;;;;;;8.40;99.90;;;;;;5010935;28;20426;-71
2023/12/22 13:33:45;;;;;;;;;;;8.50;99.90;;;;;;5014082;28;19960;-70
2023/12/22 13:36:13;;;;;;;;;;;8.60;99.90;;;;;;5014378;28;19921;-67
2023/12/22 13:38:46;;;;;;;;;;;8.60;99.90;;;;;;5014325;28;19945;-71
2023/12/22 13:41:14;;;;;;;;;;;8.60;99.90;;;;;;5014699;28;19975;-71
2023/12/22 13:43:44;;;;;;;;;;;8.60;99.90;;;;;;5014766;28;19975;-71
2023/12/22 13:46:12;;;;;;;;;;;8.70;99.90;;;;;;5014490;28;19922;-71
2023/12/22 13:48:40;;;;;;;;;;;8.70;99.90;;;;;;5014474;28;19929;-74
2023/12/22 13:51:08;;;;;;;;;;;8.80;99.90;;;;;;5022553;28;20384;-71
2023/12/22 13:53:36;;;;;;;;;;;8.90;99.90;;;;;;5014619;28;19951;-71
2023/12/22 13:56:04;;;;;;;;;;;8.90;99.90;;;;;;5014246;28;19921;-71
2023/12/22 13:58:44;;;;;;;;;;;8.90;99.90;;;;;;4996157;28;19921;-71
2023/12/22 14:01:15;;;;;;;;;;;9.00;99.90;;;;;;5022280;28;19948;-72
2023/12/22 14:03:44;;;;;;;;;;;8.90;99.90;;;;;;5014501;28;20296;-70
2023/12/22 14:06:12;;;;;;;;;;;9.10;99.90;;;;;;5014264;28;20377;-70
2023/12/22 14:08:40;;;;;;;;;;;9.10;99.90;;;;;;5013757;28;20004;-70
2023/12/22 14:11:08;;;;;;;;;;;9.20;99.90;;;;;;5014157;28;19968;-70
2023/12/22 14:13:38;;;;;;;;;;;9.30;99.90;;;;;;5014031;28;19975;-71
2023/12/22 14:16:06;;;;;;;;;;;9.20;99.90;;;;;;5013931;28;19967;-73
2023/12/22 14:18:35;;;;;;;;;;;9.30;99.90;;;;;;5013378;28;19997;-71
2023/12/22 14:21:05;;;;;;;;;;;9.20;99.90;;;;;;5013962;28;20308;-71
2023/12/22 14:23:33;;;;;;;;;;;9.30;99.90;;;;;;5013966;28;19936;-72
2023/12/22 14:26:00;;;;;;;;;;;9.30;99.90;;;;;;5014011;28;19921;-71
2023/12/22 14:28:28;;;;;;;;;;;9.30;99.90;;;;;;5006128;28;19975;-69
2023/12/22 14:30:56;;;;;;;;;;;9.30;99.90;;;;;;5013941;28;20392;-71
2023/12/22 14:33:24;;;;;;;;;;;9.30;99.90;;;;;;5013597;28;19921;-71
2023/12/22 14:35:53;;;;;;;;;;;9.30;99.90;;;;;;5013577;28;19950;-72
2023/12/22 14:38:21;;;;;;;;;;;9.40;99.90;;;;;;5013147;28;19945;-71
2023/12/22 14:40:49;;;;;;;;;;;9.30;99.90;;;;;;5013542;28;19921;-70